Nearby METAR Reports

 

KSJC - San Jose, California, USA
Distance from station: NE 14km
Updated: 28/03/2020 11:53
Overcast
Overcast
 Wind from SSW
Wind: SSW 7 km/h
Temperature: 9°C
Wind Chill: 8°C
Dew Point: 4°C
Humidity: 71%
Barometer: 1023 hPa
Clouds: Overcast
Visibility: 16 km
Cloud details: Overcast 1341 m
2020/03/28 10:53 KSJC 281053Z AUTO 20004KT 10SM OVC044 09/04 A3021 RMK AO2 SLP229 T00940044
KNUQ - Moffett Nas/Mtn, California, USA
Distance from station: N 14km
Updated: 21/11/2019 17:56
NOT Current

 
Barometer: 1011.2 hPa
2019/11/21 16:56 KNUQ 211656Z AUTO A2986 RMK AO2 SLP116 PWINO $
 
KPAO - Palo Alto, California, USA
Distance from station: NNW 23km
Updated: 28/03/2020 04:47
NOT Current
Mostly cloudy
Mostly cloudy
 Wind from varies
Wind: varies 7 km/h
Temperature: 13°C
Dew Point: 4°C
Humidity: 55%
Barometer: 1022.7 hPa
Clouds: Mostly cloudy
Visibility: 16 km
Cloud details: Mostly cloudy 1219 m
2020/03/28 03:47 KPAO 280347Z VRB04KT 10SM BKN040 13/04 A3020 RMK LAST
KRHV - San Jose/Reid, California, USA
Distance from station: ENE 19km
Updated: 28/03/2020 05:47
NOT Current
Partly cloudy
Partly cloudy
 Wind from calm
Wind: Calm
Temperature: 11°C
Dew Point: 4°C
Humidity: 62%
Barometer: 1023.7 hPa
Clouds: Partly cloudy
Visibility: 16 km
Cloud details: Partly cloudy 1524 m
2020/03/28 04:47 KRHV 280447Z 00000KT 10SM SCT050 11/04 A3023 RMK LAST
 
KOAK - Oakland, California, USA
Distance from station: NNW 50km
Updated: 28/03/2020 11:53
Overcast
Overcast
 Wind from S
Wind: S 17 km/h
Temperature: 13°C
Dew Point: 8°C
Humidity: 72%
Barometer: 1022.7 hPa
Clouds: Overcast
Visibility: 16 km
Cloud details: Partly cloudy 549 m
Mostly cloudy 853 m
Overcast 1829 m
2020/03/28 10:53 KOAK 281053Z 19009KT 10SM SCT018 BKN028 OVC060 13/08 A3020 RMK AO2 SLP227 T01280083
KSQL - San Carlos Airpo, California, USA
Distance from station: NW 34km
Updated: 28/03/2020 12:35
Overcast
Overcast
 Wind from S
Wind: S 6 km/h
Temperature: 10°C
Dew Point: 8°C
Humidity: 88%
Barometer: 1022.7 hPa
Clouds: Overcast
Visibility: 16 km
Cloud details: Overcast 1829 m
2020/03/28 11:35 KSQL 281135Z AUTO 18003KT 10SM OVC060 10/08 A3020 RMK AO2
 
KSFO - San Francisco, California, USA
Distance from station: NW 49km
Updated: 28/03/2020 11:56
Mostly cloudy
Mostly cloudy
 Wind from S
Wind: S 6 km/h
Temperature: 12°C
Dew Point: 8°C
Humidity: 77%
Barometer: 1022.4 hPa
Clouds: Mostly cloudy
Visibility: 16 km
Cloud details: Partly cloudy 579 m
Mostly cloudy 1981 m
2020/03/28 10:56 KSFO 281056Z 17003KT 10SM SCT019 BKN065 12/08 A3019 RMK AO2 SLP224 T01170078
KE16 - San Martin, California, USA
Distance from station: ESE 43km
Updated: 14/11/2019 10:35
NOT Current
Overcast
Overcast
 Wind from SE
Wind: SE 11 km/h
Temperature: 12°C
Dew Point: 10°C
Humidity: 88%
Barometer: 1017.6 hPa
Clouds: Overcast
Visibility: 16 km
Cloud details: Overcast 427 m
2019/11/14 09:35 KE16 140935Z AUTO 13006KT 10SM OVC014 12/10 A3005 RMK AO2
 
KWVI - Watsonville, California, USA
Distance from station: SSE 44km
Updated: 28/03/2020 11:53
Mostly cloudy
Mostly cloudy
 Wind from calm
Wind: Calm
Temperature: 7°C
Dew Point: 5°C
Humidity: 87%
Barometer: 1023.4 hPa
Clouds: Mostly cloudy
Visibility: 16 km
Cloud details: Mostly cloudy 1981 m
Mostly cloudy 3353 m
2020/03/28 10:53 KWVI 281053Z AUTO 00000KT 10SM BKN065 BKN110 07/05 A3022 RMK AO2 SLP232 T00720050
KHAF - Half Moon Bay, California, USA
Distance from station: WNW 50km
Updated: 28/03/2020 12:35
Mist, Overcast
Mist, Overcast
 Wind from calm
Wind: Calm
Temperature: 10°C
Dew Point: 9°C
Humidity: 94%
Barometer: 1022.7 hPa
Summary: Mist
Clouds: Overcast
Visibility: 10 km
Cloud details: Few Clouds 610 m
Mostly cloudy 762 m
Overcast 2134 m
2020/03/28 11:35 KHAF 281135Z AUTO 00000KT 6SM BR FEW020 BKN025 OVC070 10/09 A3020 RMK AO2
 
KHWD - Hayward, California, USA
Distance from station: N 44km
Updated: 28/03/2020 11:54
Overcast
Overcast
 Wind from SSE
Wind: SSE 11 km/h
Temperature: 11°C
Dew Point: 7°C
Humidity: 77%
Barometer: 1022.7 hPa
Clouds: Overcast
Visibility: 16 km
Cloud details: Mostly cloudy 914 m
Mostly cloudy 1097 m
Overcast 1341 m
2020/03/28 10:54 KHWD 281054Z 15006KT 10SM BKN030 BKN036 OVC044 11/07 A3020 RMK AO2 SLP235 T01110072
KLVK - Livermore, California, USA
Distance from station: NNE 51km
Updated: 28/03/2020 11:53
Few Clouds
Few Clouds
 Wind from calm
Wind: Calm
Temperature: 9°C
Dew Point: 6°C
Humidity: 82%
Barometer: 1022.4 hPa
Clouds: Few Clouds
Visibility: 14 km
Cloud details: Few Clouds 1189 m
Few Clouds 1524 m
2020/03/28 10:53 KLVK 281053Z AUTO 00000KT 9SM FEW039 FEW050 09/06 A3019 RMK AO2 SLP223 T00890061